Time;durP1;ratioP1;P1;durP2;ratioP2;P2;SDS_P1;SDS_P2;PMS_P1;PMS_P2;Temp;Humidity;BMP_temperature;BMP_pressure;BME280_temperature;BME280_humidity;BME280_pressure;Samples;Min_cycle;Max_cycle;Signal;HPM_P1;HPM_P2
2022/03/12 09:22:36;;;;;;;0.00;0.00;;;;;;;;;;5611214;23;20059;-60
2022/03/12 09:25:02;;;;;;;0.00;0.00;;;;;;;;;;4929443;29;20036;-60
2022/03/12 09:27:27;;;;;;;0.00;0.00;;;;;;;;;;4929389;29;20091;-60
2022/03/12 09:29:52;;;;;;;1.45;1.45;;;;;;;;;;4931696;29;20031;-59
2022/03/12 09:32:18;;;;;;;0.00;0.00;;;;;;;;;;4930943;29;20114;-61
2022/03/12 09:34:43;;;;;;;1.17;1.17;;;;;;;;;;4930282;28;20107;-60
2022/03/12 09:37:09;;;;;;;0.17;0.17;;;;;;;;;;4934806;29;20024;-59
2022/03/12 09:39:35;;;;;;;1.55;1.45;;;;;;;;;;4933831;29;20067;-58
2022/03/12 09:42:00;;;;;;;0.25;0.20;;;;;;;;;;4933330;29;20139;-58
2022/03/12 09:44:26;;;;;;;0.15;0.15;;;;;;;;;;4935254;29;20027;-57
2022/03/12 09:46:51;;;;;;;0.00;0.00;;;;;;;;;;4937631;29;20035;-58
2022/03/12 09:49:16;;;;;;;0.00;0.00;;;;;;;;;;4934443;29;20547;-58
2022/03/12 09:51:42;;;;;;;0.00;0.00;;;;;;;;;;4933636;29;20082;-58
2022/03/12 09:54:08;;;;;;;0.00;0.00;;;;;;;;;;4943953;29;20074;-59
2022/03/12 09:56:33;;;;;;;1.08;1.08;;;;;;;;;;4935465;29;20048;-56
2022/03/12 09:58:58;;;;;;;0.10;0.10;;;;;;;;;;4939855;29;20020;-57
2022/03/12 10:01:23;;;;;;;0.00;0.00;;;;;;;;;;4937939;29;20028;-55
2022/03/12 10:03:49;;;;;;;1.27;1.27;;;;;;;;;;4934202;29;20019;-56
2022/03/12 10:06:18;;;;;;;2.17;0.90;;;;;;;;;;4938107;29;20038;-57
2022/03/12 10:08:43;;;;;;;0.20;0.20;;;;;;;;;;4938325;29;20030;-57
2022/03/12 10:11:08;;;;;;;0.10;0.10;;;;;;;;;;4936054;29;20019;-56
2022/03/12 10:13:33;;;;;;;1.30;1.20;;;;;;;;;;4934501;29;20481;-58
2022/03/12 10:15:59;;;;;;;2.92;2.72;;;;;;;;;;4943166;29;20023;-57
2022/03/12 10:18:24;;;;;;;0.60;0.60;;;;;;;;;;4939852;29;20047;-55
2022/03/12 10:20:50;;;;;;;0.00;0.00;;;;;;;;;;4938481;29;20034;-56
2022/03/12 10:23:15;;;;;;;2.08;1.88;;;;;;;;;;4935365;29;20048;-56
2022/03/12 10:25:40;;;;;;;0.00;0.00;;;;;;;;;;4939773;29;20036;-56
2022/03/12 10:28:06;;;;;;;0.00;0.00;;;;;;;;;;4937299;29;20083;-56
2022/03/12 10:30:31;;;;;;;1.80;1.80;;;;;;;;;;4938071;29;20031;-58
2022/03/12 10:32:56;;;;;;;0.73;0.73;;;;;;;;;;4931849;29;20047;-56
2022/03/12 10:35:25;;;;;;;0.00;0.00;;;;;;;;;;4933752;29;20039;-54
2022/03/12 10:37:51;;;;;;;0.65;0.65;;;;;;;;;;4935668;29;20106;-52
2022/03/12 10:40:24;;;;;;;1.75;1.65;;;;;;;;;;4932357;29;20545;-57
2022/03/12 10:42:50;;;;;;;1.75;1.17;;;;;;;;;;4941421;29;20106;-58
2022/03/12 10:45:20;;;;;;;0.40;0.40;;;;;;;;;;4940122;29;20496;-58
2022/03/12 10:47:45;;;;;;;;;;;;;;;;;;4943318;29;20027;-56
2022/03/12 10:50:14;;;;;;;0.43;0.43;;;;;;;;;;4934301;29;20295;-57
2022/03/12 10:52:42;;;;;;;0.22;0.22;;;;;;;;;;4934448;29;20274;-56
2022/03/12 10:55:28;;;;;;;1.20;0.52;;;;;;;;;;4939641;29;20137;-57
2022/03/12 10:57:57;;;;;;;0.65;0.65;;;;;;;;;;4941330;29;20460;-59
2022/03/12 11:00:24;;;;;;;0.00;0.00;;;;;;;;;;4938055;29;20028;-59
2022/03/12 11:02:57;;;;;;;0.38;0.38;;;;;;;;;;4930593;29;20034;-58
2022/03/12 11:05:34;;;;;;;0.22;0.22;;;;;;;;;;4938423;29;20372;-60
2022/03/12 11:08:07;;;;;;;0.00;0.00;;;;;;;;;;4941076;29;20019;-60
2022/03/12 11:10:33;;;;;;;2.85;0.95;;;;;;;;;;4934463;29;20095;-59
2022/03/12 11:12:59;;;;;;;5.00;4.63;;;;;;;;;;4935521;29;20417;-59
2022/03/12 11:15:24;;;;;;;1.55;1.45;;;;;;;;;;4939468;29;20030;-60
2022/03/12 11:17:50;;;;;;;0.00;0.00;;;;;;;;;;4914019;29;20504;-58
2022/03/12 11:20:23;;;;;;;0.55;0.43;;;;;;;;;;4933195;29;20031;-58
2022/03/12 11:23:07;;;;;;;0.00;0.00;;;;;;;;;;4935618;29;20420;-58
2022/03/12 11:25:35;;;;;;;0.60;0.60;;;;;;;;;;4934092;29;20038;-58
2022/03/12 11:28:02;;;;;;;0.00;0.00;;;;;;;;;;4935115;29;20019;-59
2022/03/12 11:30:29;;;;;;;0.73;0.73;;;;;;;;;;4938561;29;20050;-60
2022/03/12 11:33:07;;;;;;;1.13;0.70;;;;;;;;;;4936630;29;20039;-58
2022/03/12 11:35:36;;;;;;;0.30;0.30;;;;;;;;;;4934919;29;20368;-56
2022/03/12 11:38:09;;;;;;;0.03;0.03;;;;;;;;;;4939114;29;20065;-56
2022/03/12 11:40:40;;;;;;;0.08;0.08;;;;;;;;;;4935426;29;20487;-55
2022/03/12 11:43:18;;;;;;;0.22;0.22;;;;;;;;;;4938953;29;20027;-56
2022/03/12 11:45:44;;;;;;;0.70;0.70;;;;;;;;;;4915700;29;20034;-56
2022/03/12 11:48:09;;;;;;;4.95;1.35;;;;;;;;;;4937179;29;20023;-57
2022/03/12 11:50:35;;;;;;;0.00;0.00;;;;;;;;;;4936924;29;20122;-53
2022/03/12 11:53:00;;;;;;;0.00;0.00;;;;;;;;;;4934117;29;20085;-56
2022/03/12 11:55:27;;;;;;;0.00;0.00;;;;;;;;;;4937927;29;20051;-56
2022/03/12 11:57:56;;;;;;;2.20;1.27;;;;;;;;;;4934241;29;20437;-52
2022/03/12 12:00:24;;;;;;;0.00;0.00;;;;;;;;;;4941416;29;20033;-52
2022/03/12 12:02:51;;;;;;;0.80;0.80;;;;;;;;;;4936193;29;20075;-56
2022/03/12 12:05:17;;;;;;;1.25;1.02;;;;;;;;;;4935974;29;20020;-54
2022/03/12 12:07:45;;;;;;;0.68;0.68;;;;;;;;;;4932467;29;20020;-55
2022/03/12 12:10:11;;;;;;;1.35;0.70;;;;;;;;;;4934152;29;20031;-53
2022/03/12 12:12:37;;;;;;;0.30;0.30;;;;;;;;;;4931228;29;20528;-54
2022/03/12 12:15:04;;;;;;;0.00;0.00;;;;;;;;;;4940537;29;20035;-56
2022/03/12 12:17:31;;;;;;;0.00;0.00;;;;;;;;;;4937335;29;20454;-54
2022/03/12 12:19:56;;;;;;;0.47;0.47;;;;;;;;;;4937536;29;20030;-54
2022/03/12 12:22:21;;;;;;;0.00;0.00;;;;;;;;;;4937648;29;20449;-56
2022/03/12 12:24:51;;;;;;;0.00;0.00;;;;;;;;;;4941943;29;20035;-51
2022/03/12 12:27:18;;;;;;;0.00;0.00;;;;;;;;;;4943404;29;20047;-51
2022/03/12 12:29:43;;;;;;;0.00;0.00;;;;;;;;;;4933725;29;20031;-54
2022/03/12 12:32:09;;;;;;;0.57;0.20;;;;;;;;;;4937186;29;20023;-51
2022/03/12 12:34:35;;;;;;;0.00;0.00;;;;;;;;;;4938268;29;20118;-56
2022/03/12 12:37:03;;;;;;;0.20;0.20;;;;;;;;;;4929164;29;20170;-55
2022/03/12 12:39:29;;;;;;;4.63;3.67;;;;;;;;;;4932530;29;20023;-55
2022/03/12 12:42:01;;;;;;;0.00;0.00;;;;;;;;;;4933864;29;20027;-57
2022/03/12 12:44:47;;;;;;;0.00;0.00;;;;;;;;;;4938842;29;20023;-56
2022/03/12 12:47:17;;;;;;;2.95;1.75;;;;;;;;;;4919290;29;20043;-56
2022/03/12 12:49:49;;;;;;;0.40;0.40;;;;;;;;;;4935267;29;20155;-52
2022/03/12 12:52:14;;;;;;;0.00;0.00;;;;;;;;;;4936419;29;20144;-56
2022/03/12 12:54:46;;;;;;;0.00;0.00;;;;;;;;;;4932963;29;20557;-50
2022/03/12 12:57:11;;;;;;;0.22;0.22;;;;;;;;;;4935771;29;20031;-56
2022/03/12 12:59:44;;;;;;;1.50;0.93;;;;;;;;;;4938892;29;20031;-55
2022/03/12 13:02:10;;;;;;;0.00;0.00;;;;;;;;;;4931411;29;20217;-55
2022/03/12 13:04:48;;;;;;;3.20;3.10;;;;;;;;;;4933230;29;20115;-52
2022/03/12 13:07:19;;;;;;;0.75;0.75;;;;;;;;;;4931034;29;20038;-52
2022/03/12 13:09:47;;;;;;;1.25;1.15;;;;;;;;;;4933317;29;20016;-56
2022/03/12 13:12:12;;;;;;;0.00;0.00;;;;;;;;;;4940550;29;20035;-55
2022/03/12 13:14:40;;;;;;;0.20;0.20;;;;;;;;;;4933457;29;20020;-55
2022/03/12 13:17:05;;;;;;;0.00;0.00;;;;;;;;;;4934285;29;20103;-52
2022/03/12 13:19:30;;;;;;;0.90;0.90;;;;;;;;;;4940404;29;20098;-50
2022/03/12 13:21:57;;;;;;;0.00;0.00;;;;;;;;;;4946819;29;20040;-52
2022/03/12 13:24:22;;;;;;;0.00;0.00;;;;;;;;;;4937649;29;20055;-52
2022/03/12 13:26:49;;;;;;;5.65;3.92;;;;;;;;;;4939870;29;20472;-52
2022/03/12 13:29:14;;;;;;;0.00;0.00;;;;;;;;;;4939408;29;20024;-48
2022/03/12 13:31:40;;;;;;;0.00;0.00;;;;;;;;;;4939806;29;20024;-49
2022/03/12 13:34:10;;;;;;;0.90;0.82;;;;;;;;;;4936800;29;20028;-55
2022/03/12 13:36:49;;;;;;;0.00;0.00;;;;;;;;;;4936774;29;20055;-55
2022/03/12 13:39:15;;;;;;;0.00;0.00;;;;;;;;;;4938668;29;20434;-54
2022/03/12 13:41:41;;;;;;;0.00;0.00;;;;;;;;;;4939693;29;20024;-54
2022/03/12 13:44:07;;;;;;;0.00;0.00;;;;;;;;;;4936887;29;20022;-55
2022/03/12 13:46:33;;;;;;;7.32;0.98;;;;;;;;;;4940887;29;20030;-52
2022/03/12 13:48:58;;;;;;;1.10;1.08;;;;;;;;;;4937560;29;20036;-52
2022/03/12 13:51:24;;;;;;;0.00;0.00;;;;;;;;;;4930102;29;20036;-51
2022/03/12 13:53:53;;;;;;;0.00;0.00;;;;;;;;;;4946888;29;20031;-50
2022/03/12 13:56:20;;;;;;;1.38;0.35;;;;;;;;;;4945281;29;20027;-51
2022/03/12 13:58:46;;;;;;;0.00;0.00;;;;;;;;;;4937683;29;20094;-54
2022/03/12 14:01:26;;;;;;;0.00;0.00;;;;;;;;;;4939501;29;20046;-54
2022/03/12 14:03:52;;;;;;;0.00;0.00;;;;;;;;;;4936187;29;20032;-56
2022/03/12 14:06:39;;;;;;;1.25;1.25;;;;;;;;;;4936143;29;20774;-58
2022/03/12 14:09:05;;;;;;;0.00;0.00;;;;;;;;;;4939776;29;20024;-53
2022/03/12 14:11:38;;;;;;;0.00;0.00;;;;;;;;;;4946607;29;20019;-57
2022/03/12 14:14:06;;;;;;;0.05;0.05;;;;;;;;;;4940704;29;20074;-53
2022/03/12 14:16:33;;;;;;;0.13;0.13;;;;;;;;;;4933596;29;20036;-54
2022/03/12 14:19:01;;;;;;;0.00;0.00;;;;;;;;;;4939111;29;20079;-56
2022/03/12 14:21:37;;;;;;;0.00;0.00;;;;;;;;;;4935414;29;20397;-54
2022/03/12 14:24:09;;;;;;;0.45;0.45;;;;;;;;;;4934240;29;20043;-55
2022/03/12 14:26:44;;;;;;;0.00;0.00;;;;;;;;;;4939826;29;20385;-55
2022/03/12 14:29:09;;;;;;;0.00;0.00;;;;;;;;;;4939197;29;20029;-55
2022/03/12 14:31:37;;;;;;;0.00;0.00;;;;;;;;;;4938498;29;20470;-55
2022/03/12 14:34:02;;;;;;;0.30;0.30;;;;;;;;;;4931610;29;20119;-51
2022/03/12 14:36:27;;;;;;;0.20;0.20;;;;;;;;;;4939931;29;20130;-53
2022/03/12 14:38:53;;;;;;;0.00;0.00;;;;;;;;;;4937942;29;20024;-55
2022/03/12 14:41:18;;;;;;;0.00;0.00;;;;;;;;;;4936836;29;20453;-54
2022/03/12 14:43:44;;;;;;;0.00;0.00;;;;;;;;;;4943206;29;20047;-54
2022/03/12 14:46:09;;;;;;;0.00;0.00;;;;;;;;;;4943107;29;20035;-49
2022/03/12 14:48:34;;;;;;;0.30;0.30;;;;;;;;;;4938652;29;20026;-52
2022/03/12 14:51:00;;;;;;;0.00;0.00;;;;;;;;;;4941631;29;20107;-53
2022/03/12 14:53:26;;;;;;;0.10;0.10;;;;;;;;;;4944344;29;20114;-51
2022/03/12 14:55:51;;;;;;;8.18;7.35;;;;;;;;;;4939944;29;20035;-51
2022/03/12 14:58:17;;;;;;;0.03;0.03;;;;;;;;;;4941907;29;20015;-52
2022/03/12 15:00:43;;;;;;;4.10;4.00;;;;;;;;;;4941830;29;20019;-49
2022/03/12 15:03:10;;;;;;;0.03;0.03;;;;;;;;;;4944611;29;20035;-51
2022/03/12 15:05:36;;;;;;;3.25;0.50;;;;;;;;;;4943244;29;20019;-56
2022/03/12 15:08:03;;;;;;;0.13;0.13;;;;;;;;;;4935518;29;20094;-51
2022/03/12 15:10:28;;;;;;;0.00;0.00;;;;;;;;;;4937961;29;20034;-53
2022/03/12 15:12:59;;;;;;;1.05;0.35;;;;;;;;;;4942096;29;20110;-53
2022/03/12 15:15:31;;;;;;;0.00;0.00;;;;;;;;;;4938643;29;20023;-52
2022/03/12 15:17:56;;;;;;;0.20;0.20;;;;;;;;;;4939237;29;20035;-54
2022/03/12 15:20:27;;;;;;;1.15;1.10;;;;;;;;;;4922347;29;20351;-54
2022/03/12 15:22:59;;;;;;;0.00;0.00;;;;;;;;;;4940408;29;20058;-55
2022/03/12 15:25:26;;;;;;;0.00;0.00;;;;;;;;;;4946173;29;20022;-56
2022/03/12 15:27:53;;;;;;;1.50;1.50;;;;;;;;;;4939905;29;20031;-56
2022/03/12 15:30:28;;;;;;;0.00;0.00;;;;;;;;;;4939232;29;20063;-57
2022/03/12 15:32:53;;;;;;;0.60;0.60;;;;;;;;;;4944778;28;20035;-56
2022/03/12 15:35:32;;;;;;;0.00;0.00;;;;;;;;;;4943579;29;20019;-52
2022/03/12 15:37:57;;;;;;;0.75;0.75;;;;;;;;;;4943370;29;20015;-56
2022/03/12 15:40:22;;;;;;;0.10;0.10;;;;;;;;;;4945262;29;20492;-53
2022/03/12 15:42:48;;;;;;;0.00;0.00;;;;;;;;;;4945595;29;20023;-53
2022/03/12 15:45:14;;;;;;;0.00;0.00;;;;;;;;;;4939912;29;20046;-53
2022/03/12 15:47:40;;;;;;;0.00;0.00;;;;;;;;;;4940084;29;20067;-53
2022/03/12 15:50:07;;;;;;;0.00;0.00;;;;;;;;;;4945273;29;20024;-54
2022/03/12 15:52:33;;;;;;;0.00;0.00;;;;;;;;;;4945775;29;20039;-56
2022/03/12 15:54:58;;;;;;;0.00;0.00;;;;;;;;;;4943882;29;20030;-53
2022/03/12 15:57:23;;;;;;;0.10;0.10;;;;;;;;;;4941282;29;20465;-54
2022/03/12 15:59:49;;;;;;;0.25;0.25;;;;;;;;;;4940863;29;20030;-56
2022/03/12 16:02:14;;;;;;;0.80;0.80;;;;;;;;;;4944255;29;20024;-53
2022/03/12 16:04:39;;;;;;;0.00;0.00;;;;;;;;;;4939178;29;20030;-51
2022/03/12 16:07:06;;;;;;;0.00;0.00;;;;;;;;;;4942178;29;20031;-54
2022/03/12 16:09:32;;;;;;;0.00;0.00;;;;;;;;;;4944856;29;20031;-54
2022/03/12 16:11:58;;;;;;;1.45;1.40;;;;;;;;;;4937163;29;20596;-58
2022/03/12 16:14:27;;;;;;;0.30;0.30;;;;;;;;;;4942812;29;20111;-57
2022/03/12 16:16:54;;;;;;;1.55;1.42;;;;;;;;;;4926800;29;20026;-57
2022/03/12 16:19:21;;;;;;;1.23;1.17;;;;;;;;;;4936240;29;21393;-58
2022/03/12 16:21:48;;;;;;;0.10;0.00;;;;;;;;;;4941890;29;20031;-58
2022/03/12 16:24:13;;;;;;;1.92;1.90;;;;;;;;;;4938008;29;20051;-58
2022/03/12 16:26:39;;;;;;;1.67;1.58;;;;;;;;;;4929852;29;20110;-58
2022/03/12 16:29:05;;;;;;;1.25;1.25;;;;;;;;;;4940510;29;20032;-57
2022/03/12 16:31:31;;;;;;;0.00;0.00;;;;;;;;;;4936256;29;20107;-57
2022/03/12 16:33:56;;;;;;;0.68;0.60;;;;;;;;;;4934479;29;20035;-57
2022/03/12 16:36:21;;;;;;;0.08;0.08;;;;;;;;;;4947519;29;20030;-57
2022/03/12 16:38:46;;;;;;;0.00;0.00;;;;;;;;;;4942605;29;20354;-57
2022/03/12 16:41:12;;;;;;;0.57;0.57;;;;;;;;;;4943660;29;20024;-58
2022/03/12 16:43:38;;;;;;;0.00;0.00;;;;;;;;;;4947408;29;20102;-58
2022/03/12 16:46:04;;;;;;;1.02;1.02;;;;;;;;;;4944252;29;20032;-58
2022/03/12 16:48:35;;;;;;;0.25;0.25;;;;;;;;;;4943653;29;20034;-59
2022/03/12 16:51:00;;;;;;;0.00;0.00;;;;;;;;;;4936724;29;20224;-57
2022/03/12 16:53:26;;;;;;;1.95;1.38;;;;;;;;;;4933501;29;20114;-59
2022/03/12 16:55:51;;;;;;;0.25;0.25;;;;;;;;;;4938847;29;20023;-59
2022/03/12 16:58:17;;;;;;;0.38;0.38;;;;;;;;;;4938602;29;20358;-58
2022/03/12 17:00:43;;;;;;;1.17;1.08;;;;;;;;;;4937978;29;20500;-58
2022/03/12 17:03:10;;;;;;;0.10;0.10;;;;;;;;;;4938439;29;20035;-58
2022/03/12 17:05:36;;;;;;;0.73;0.73;;;;;;;;;;4941469;29;20030;-59
2022/03/12 17:08:02;;;;;;;0.00;0.00;;;;;;;;;;4939776;29;20513;-58
2022/03/12 17:10:28;;;;;;;0.00;0.00;;;;;;;;;;4951913;29;20038;-58
2022/03/12 17:12:54;;;;;;;0.00;0.00;;;;;;;;;;4945100;29;20031;-57
2022/03/12 17:15:20;;;;;;;0.00;0.00;;;;;;;;;;4941791;29;20093;-58
2022/03/12 17:17:45;;;;;;;0.57;0.57;;;;;;;;;;4944040;29;20083;-57
2022/03/12 17:20:11;;;;;;;0.00;0.00;;;;;;;;;;4945697;29;20007;-57
2022/03/12 17:22:37;;;;;;;0.20;0.20;;;;;;;;;;4946522;29;20048;-57
2022/03/12 17:25:06;;;;;;;0.52;0.52;;;;;;;;;;4939266;29;20114;-59
2022/03/12 17:27:32;;;;;;;1.58;1.58;;;;;;;;;;4949907;29;20087;-57
2022/03/12 17:29:57;;;;;;;0.32;0.32;;;;;;;;;;4945580;29;20414;-58
2022/03/12 17:32:23;;;;;;;0.00;0.00;;;;;;;;;;4946099;29;20094;-58
2022/03/12 17:34:48;;;;;;;0.00;0.00;;;;;;;;;;4937609;29;20159;-58
2022/03/12 17:37:15;;;;;;;0.35;0.35;;;;;;;;;;4941800;29;20027;-58
2022/03/12 17:39:40;;;;;;;0.00;0.00;;;;;;;;;;4939926;29;20479;-57
2022/03/12 17:42:05;;;;;;;1.17;1.17;;;;;;;;;;4947571;29;20027;-58
2022/03/12 17:44:32;;;;;;;2.25;2.08;;;;;;;;;;4944325;29;20015;-57
2022/03/12 17:46:57;;;;;;;0.47;0.47;;;;;;;;;;4943028;29;20019;-59
2022/03/12 17:49:23;;;;;;;1.85;1.75;;;;;;;;;;4942541;29;20110;-58
2022/03/12 17:51:48;;;;;;;2.28;2.17;;;;;;;;;;4945529;29;20038;-57
2022/03/12 17:54:14;;;;;;;2.35;2.17;;;;;;;;;;4944267;29;20058;-56
2022/03/12 17:56:42;;;;;;;0.40;0.40;;;;;;;;;;4935796;29;20012;-57
2022/03/12 17:59:07;;;;;;;2.28;2.08;;;;;;;;;;4953272;29;20428;-58
2022/03/12 18:01:33;;;;;;;3.35;2.70;;;;;;;;;;4953149;29;20024;-57
2022/03/12 18:03:59;;;;;;;1.85;1.77;;;;;;;;;;4946650;29;20035;-59
2022/03/12 18:06:25;;;;;;;0.88;0.77;;;;;;;;;;4947218;29;20019;-58
2022/03/12 18:08:51;;;;;;;1.15;1.15;;;;;;;;;;4944894;29;20109;-58
2022/03/12 18:11:17;;;;;;;0.00;0.00;;;;;;;;;;4933735;29;20095;-59
2022/03/12 18:13:49;;;;;;;0.55;0.55;;;;;;;;;;4941815;29;20083;-57
2022/03/12 18:16:15;;;;;;;3.42;3.20;;;;;;;;;;4944672;29;20019;-58
2022/03/12 18:18:43;;;;;;;0.20;0.20;;;;;;;;;;4943762;29;20042;-58
2022/03/12 18:21:09;;;;;;;0.35;0.35;;;;;;;;;;4949119;29;20050;-57
2022/03/12 18:23:36;;;;;;;1.58;1.48;;;;;;;;;;4934958;29;20123;-57
2022/03/12 18:26:01;;;;;;;4.15;1.15;;;;;;;;;;4944776;29;20026;-56
2022/03/12 18:28:28;;;;;;;0.40;0.40;;;;;;;;;;4945079;29;20028;-58
2022/03/12 18:30:53;;;;;;;2.00;1.25;;;;;;;;;;4939040;29;20036;-57
2022/03/12 18:33:19;;;;;;;0.00;0.00;;;;;;;;;;4944689;29;20532;-58
2022/03/12 18:35:44;;;;;;;0.10;0.10;;;;;;;;;;4943046;29;20381;-57
2022/03/12 18:38:09;;;;;;;13.00;12.20;;;;;;;;;;4948053;29;20027;-57
2022/03/12 18:40:36;;;;;;;1.75;1.75;;;;;;;;;;4945768;29;20027;-55
2022/03/12 18:43:02;;;;;;;0.10;0.10;;;;;;;;;;4944490;29;20473;-56
2022/03/12 18:45:28;;;;;;;0.93;0.65;;;;;;;;;;4945495;29;20104;-57
2022/03/12 18:47:54;;;;;;;0.00;0.00;;;;;;;;;;4943378;29;20425;-57
2022/03/12 18:50:20;;;;;;;0.80;0.80;;;;;;;;;;4923913;29;20020;-57
2022/03/12 18:52:46;;;;;;;1.15;1.15;;;;;;;;;;4946709;29;20393;-56
2022/03/12 18:55:21;;;;;;;0.50;0.50;;;;;;;;;;4948855;29;20027;-55
2022/03/12 18:57:48;;;;;;;0.00;0.00;;;;;;;;;;4944245;29;20046;-55
2022/03/12 19:00:13;;;;;;;0.00;0.00;;;;;;;;;;4945119;29;20094;-57
2022/03/12 19:02:38;;;;;;;0.10;0.10;;;;;;;;;;4943802;29;20470;-55
2022/03/12 19:05:05;;;;;;;0.10;0.10;;;;;;;;;;4942204;29;20020;-57
2022/03/12 19:07:31;;;;;;;0.00;0.00;;;;;;;;;;4941433;29;20043;-58
2022/03/12 19:09:56;;;;;;;0.00;0.00;;;;;;;;;;4947905;29;20093;-57
2022/03/12 19:12:26;;;;;;;0.00;0.00;;;;;;;;;;4946256;29;20027;-55
2022/03/12 19:14:52;;;;;;;0.30;0.30;;;;;;;;;;4943238;29;20490;-55
2022/03/12 19:17:18;;;;;;;0.00;0.00;;;;;;;;;;4941833;29;20024;-59
2022/03/12 19:19:43;;;;;;;0.00;0.00;;;;;;;;;;4940448;29;20361;-56
2022/03/12 19:22:08;;;;;;;0.00;0.00;;;;;;;;;;4945408;29;20449;-56
2022/03/12 19:24:39;;;;;;;0.00;0.00;;;;;;;;;;4946019;29;20023;-54
2022/03/12 19:27:05;;;;;;;0.00;0.00;;;;;;;;;;4946965;29;20027;-56
2022/03/12 19:29:32;;;;;;;0.00;0.00;;;;;;;;;;4943777;29;20023;-55
2022/03/12 19:31:58;;;;;;;16.83;16.00;;;;;;;;;;4944630;29;20062;-55
2022/03/12 19:34:23;;;;;;;1.27;1.27;;;;;;;;;;4947396;29;20027;-56
2022/03/12 19:36:49;;;;;;;0.28;0.28;;;;;;;;;;4948878;29;20023;-56
2022/03/12 19:39:14;;;;;;;1.30;1.30;;;;;;;;;;4945205;29;20027;-55
2022/03/12 19:41:45;;;;;;;0.43;0.43;;;;;;;;;;4949354;29;20106;-56
2022/03/12 19:44:10;;;;;;;0.80;0.55;;;;;;;;;;4946914;29;20027;-57
2022/03/12 19:46:38;;;;;;;5.82;1.65;;;;;;;;;;4949607;29;20045;-54
2022/03/12 19:49:03;;;;;;;0.57;0.57;;;;;;;;;;4943801;29;20034;-57
2022/03/12 19:51:28;;;;;;;2.22;2.13;;;;;;;;;;4940321;29;20015;-56
2022/03/12 19:53:53;;;;;;;2.28;2.15;;;;;;;;;;4942441;29;20115;-56
2022/03/12 19:56:18;;;;;;;0.00;0.00;;;;;;;;;;4940180;29;20098;-54
2022/03/12 19:58:44;;;;;;;0.00;0.00;;;;;;;;;;4943297;29;20036;-56
2022/03/12 20:01:09;;;;;;;0.52;0.52;;;;;;;;;;4947055;29;20473;-57
2022/03/12 20:03:39;;;;;;;0.28;0.28;;;;;;;;;;4942115;29;20388;-55
2022/03/12 20:06:07;;;;;;;0.32;0.32;;;;;;;;;;4942610;29;20370;-57
2022/03/12 20:08:41;;;;;;;0.00;0.00;;;;;;;;;;4939844;29;20019;-57
2022/03/12 20:11:06;;;;;;;0.00;0.00;;;;;;;;;;4943206;29;20024;-56
2022/03/12 20:13:35;;;;;;;2.10;1.95;;;;;;;;;;4943795;29;20081;-53
2022/03/12 20:16:00;;;;;;;0.93;0.93;;;;;;;;;;4943183;29;20031;-53
2022/03/12 20:18:25;;;;;;;0.65;0.65;;;;;;;;;;4934929;29;20016;-55
2022/03/12 20:20:54;;;;;;;4.95;0.55;;;;;;;;;;4941497;28;20517;-55
2022/03/12 20:23:19;;;;;;;1.52;1.38;;;;;;;;;;4941702;29;20497;-54
2022/03/12 20:25:45;;;;;;;0.98;0.98;;;;;;;;;;4945274;29;20035;-56
2022/03/12 20:28:14;;;;;;;0.00;0.00;;;;;;;;;;4921682;29;20034;-53
2022/03/12 20:30:39;;;;;;;3.50;2.13;;;;;;;;;;4944072;29;20138;-54
2022/03/12 20:33:06;;;;;;;0.00;0.00;;;;;;;;;;4939315;29;20023;-52
2022/03/12 20:35:31;;;;;;;0.60;0.60;;;;;;;;;;4941131;29;20052;-54
2022/03/12 20:37:56;;;;;;;4.05;3.75;;;;;;;;;;4943817;29;20047;-54
2022/03/12 20:40:23;;;;;;;1.65;1.65;;;;;;;;;;4938408;29;20024;-52
2022/03/12 20:42:48;;;;;;;0.20;0.20;;;;;;;;;;4943715;29;20023;-56
2022/03/12 20:45:15;;;;;;;1.60;1.02;;;;;;;;;;4942882;29;20026;-51
2022/03/12 20:47:44;;;;;;;1.75;1.63;;;;;;;;;;4939614;29;20031;-55
2022/03/12 20:50:10;;;;;;;2.70;2.60;;;;;;;;;;4944102;29;20564;-52
2022/03/12 20:52:35;;;;;;;4.65;4.20;;;;;;;;;;4941903;29;20114;-54
2022/03/12 20:55:00;;;;;;;0.22;0.10;;;;;;;;;;4935276;29;20027;-55
2022/03/12 20:57:25;;;;;;;0.93;0.93;;;;;;;;;;4940124;29;20079;-55
2022/03/12 20:59:51;;;;;;;1.70;1.60;;;;;;;;;;4944401;29;20096;-54
2022/03/12 21:02:16;;;;;;;1.25;1.02;;;;;;;;;;4938784;29;20043;-53
2022/03/12 21:04:41;;;;;;;0.60;0.60;;;;;;;;;;4942592;29;20031;-56
2022/03/12 21:07:06;;;;;;;1.45;1.45;;;;;;;;;;4940205;29;20106;-55
2022/03/12 21:09:32;;;;;;;1.08;1.08;;;;;;;;;;4942817;29;20031;-53
2022/03/12 21:12:01;;;;;;;0.00;0.00;;;;;;;;;;4937529;29;20728;-55
2022/03/12 21:14:27;;;;;;;;;;;;;;;;;;4937505;29;20036;-53
2022/03/12 21:16:52;;;;;;;2.90;1.38;;;;;;;;;;4936920;29;19921;-54
2022/03/12 21:19:17;;;;;;;0.17;0.17;;;;;;;;;;4935740;29;20772;-55
2022/03/12 21:21:43;;;;;;;0.50;0.50;;;;;;;;;;4940011;29;20028;-53
2022/03/12 21:24:13;;;;;;;3.58;3.38;;;;;;;;;;4943580;29;20043;-50
2022/03/12 21:26:40;;;;;;;2.45;2.05;;;;;;;;;;4918383;29;20035;-52
2022/03/12 21:29:06;;;;;;;2.80;2.63;;;;;;;;;;4934115;29;20152;-53
2022/03/12 21:31:32;;;;;;;0.38;0.38;;;;;;;;;;4950481;28;20114;-58
2022/03/12 21:33:57;;;;;;;3.30;2.22;;;;;;;;;;4947026;29;20027;-50
2022/03/12 21:36:23;;;;;;;0.73;0.73;;;;;;;;;;4949052;29;20015;-54
2022/03/12 21:38:48;;;;;;;0.40;0.40;;;;;;;;;;4948111;29;20027;-54
2022/03/12 21:41:13;;;;;;;0.17;0.17;;;;;;;;;;4946126;29;20094;-52
2022/03/12 21:43:40;;;;;;;1.00;1.00;;;;;;;;;;4949490;29;20030;-55
2022/03/12 21:46:06;;;;;;;0.00;0.00;;;;;;;;;;4944535;29;20034;-57
2022/03/12 21:48:35;;;;;;;0.00;0.00;;;;;;;;;;4945738;29;20114;-55
2022/03/12 21:51:00;;;;;;;0.00;0.00;;;;;;;;;;4944137;29;20556;-56
2022/03/12 21:53:26;;;;;;;0.00;0.00;;;;;;;;;;4945434;29;20036;-58
2022/03/12 21:55:53;;;;;;;0.00;0.00;;;;;;;;;;4942283;29;20027;-57
2022/03/12 21:58:18;;;;;;;1.25;1.25;;;;;;;;;;4946725;29;20023;-58
2022/03/12 22:00:44;;;;;;;17.90;14.15;;;;;;;;;;4943062;29;20134;-54
2022/03/12 22:03:09;;;;;;;0.00;0.00;;;;;;;;;;4942824;29;20024;-56
2022/03/12 22:05:35;;;;;;;0.00;0.00;;;;;;;;;;4947662;29;20047;-55
2022/03/12 22:08:01;;;;;;;0.00;0.00;;;;;;;;;;4939710;28;20090;-56
2022/03/12 22:10:27;;;;;;;0.00;0.00;;;;;;;;;;4942561;29;20054;-53
2022/03/12 22:12:55;;;;;;;0.00;0.00;;;;;;;;;;4940615;29;20056;-53
2022/03/12 22:15:21;;;;;;;1.55;1.55;;;;;;;;;;4938586;29;20032;-57
2022/03/12 22:17:46;;;;;;;0.43;0.43;;;;;;;;;;4946546;29;20051;-58
2022/03/12 22:20:11;;;;;;;0.00;0.00;;;;;;;;;;4947583;29;20455;-55
2022/03/12 22:22:37;;;;;;;0.10;0.10;;;;;;;;;;4941226;29;20528;-54
2022/03/12 22:25:03;;;;;;;0.00;0.00;;;;;;;;;;4942280;29;20071;-54
2022/03/12 22:27:29;;;;;;;0.00;0.00;;;;;;;;;;4941890;29;20469;-53
2022/03/12 22:29:54;;;;;;;1.80;1.80;;;;;;;;;;4942801;29;20024;-52
2022/03/12 22:32:19;;;;;;;0.00;0.00;;;;;;;;;;4945045;29;20019;-50
2022/03/12 22:34:45;;;;;;;0.00;0.00;;;;;;;;;;4939058;29;20032;-53
2022/03/12 22:37:11;;;;;;;0.00;0.00;;;;;;;;;;4936385;29;20020;-53
2022/03/12 22:39:37;;;;;;;0.00;0.00;;;;;;;;;;4944749;29;20027;-56
2022/03/12 22:42:04;;;;;;;4.60;4.28;;;;;;;;;;4932721;29;20027;-52
2022/03/12 22:44:30;;;;;;;2.22;1.58;;;;;;;;;;4938731;29;20429;-53
2022/03/12 22:46:58;;;;;;;12.55;7.95;;;;;;;;;;4939728;29;20104;-50
2022/03/12 22:49:24;;;;;;;1.75;1.50;;;;;;;;;;4935831;29;20032;-55
2022/03/12 22:51:51;;;;;;;0.00;0.00;;;;;;;;;;4940481;29;20079;-54
2022/03/12 22:54:16;;;;;;;0.00;0.00;;;;;;;;;;4942068;29;20377;-54
2022/03/12 22:56:41;;;;;;;0.00;0.00;;;;;;;;;;4945046;29;20028;-50
2022/03/12 22:59:06;;;;;;;1.55;1.45;;;;;;;;;;4942575;29;20020;-54
2022/03/12 23:01:33;;;;;;;0.10;0.10;;;;;;;;;;4951134;29;20031;-49
2022/03/12 23:09:26;;;;;;;0.00;0.00;;;;;;;;;;4947055;29;20031;-53
2022/03/12 23:11:51;;;;;;;8.40;2.38;;;;;;;;;;4941600;29;20027;-55
2022/03/12 23:14:22;;;;;;;0.32;0.32;;;;;;;;;;4948185;29;20032;-55
2022/03/12 23:16:48;;;;;;;0.00;0.00;;;;;;;;;;4944976;29;20467;-51
2022/03/12 23:19:21;;;;;;;0.00;0.00;;;;;;;;;;4943820;29;20026;-51
2022/03/12 23:21:48;;;;;;;0.00;0.00;;;;;;;;;;4942042;29;20037;-51
2022/03/12 23:24:14;;;;;;;0.00;0.00;;;;;;;;;;4947630;29;20062;-51
2022/03/12 23:26:40;;;;;;;0.00;0.00;;;;;;;;;;4941234;29;20031;-55
2022/03/12 23:29:12;;;;;;;0.00;0.00;;;;;;;;;;4939350;29;20413;-56
2022/03/12 23:31:44;;;;;;;0.00;0.00;;;;;;;;;;4941334;29;20036;-55
2022/03/12 23:34:09;;;;;;;0.20;0.20;;;;;;;;;;4924104;29;20023;-52
2022/03/12 23:36:35;;;;;;;0.00;0.00;;;;;;;;;;4939554;29;20024;-55
2022/03/12 23:39:00;;;;;;;0.38;0.38;;;;;;;;;;4945023;29;20071;-52
2022/03/12 23:41:26;;;;;;;0.00;0.00;;;;;;;;;;4946544;29;20024;-55
2022/03/12 23:43:52;;;;;;;0.00;0.00;;;;;;;;;;4949497;29;20102;-52
2022/03/12 23:46:21;;;;;;;0.00;0.00;;;;;;;;;;4932546;29;20429;-54
2022/03/12 23:48:48;;;;;;;0.55;0.55;;;;;;;;;;4941225;29;20031;-51
2022/03/12 23:51:17;;;;;;;0.00;0.00;;;;;;;;;;4944394;29;20031;-52
2022/03/12 23:53:43;;;;;;;0.90;0.90;;;;;;;;;;4940636;29;20062;-54
2022/03/12 23:56:14;;;;;;;0.40;0.20;;;;;;;;;;4920331;29;20058;-53
2022/03/12 23:58:40;;;;;;;8.10;3.60;;;;;;;;;;4940702;29;20035;-55
